createdAt,value
2022-11-17T00:00:55.511Z,100023.44
2022-11-17T00:01:58.889Z,100031.25
2022-11-17T00:03:01.253Z,100022.06
2022-11-17T00:04:04.674Z,100027.03
2022-11-17T00:05:07.440Z,100023.50
2022-11-17T00:06:10.810Z,100026.00
2022-11-17T00:07:13.061Z,100017.00
2022-11-17T00:08:17.024Z,100025.56
2022-11-17T00:09:19.282Z,100024.44
2022-11-17T00:10:22.792Z,100024.94
2022-11-17T00:11:26.426Z,100027.09
2022-11-17T00:12:47.417Z,100027.28
2022-11-17T00:14:08.224Z,100035.41
2022-11-17T00:15:11.968Z,100033.66
2022-11-17T00:16:14.683Z,100044.66
2022-11-17T00:17:18.162Z,100031.75
2022-11-17T00:18:39.092Z,100033.28
2022-11-17T00:20:00.044Z,100027.72
2022-11-17T00:21:23.923Z,100024.44
2022-11-17T00:22:27.849Z,100021.22
2022-11-17T00:23:47.136Z,100015.44
2022-11-17T00:24:51.092Z,100016.09
2022-11-17T00:25:53.367Z,100017.00
2022-11-17T00:27:04.133Z,100024.81
2022-11-17T00:28:06.357Z,100025.94
2022-11-17T00:29:09.687Z,100031.56
2022-11-17T00:30:32.927Z,100020.97
2022-11-17T00:31:53.032Z,100016.94
2022-11-17T00:33:13.708Z,100019.09
2022-11-17T00:34:18.881Z,100016.28
2022-11-17T00:35:21.045Z,100013.94
2022-11-17T00:36:26.995Z,100002.47
2022-11-17T00:37:32.160Z,100006.22
2022-11-17T00:38:34.464Z,100007.31
2022-11-17T00:39:37.960Z,100014.16
2022-11-17T00:40:40.330Z,100011.66
2022-11-17T00:41:44.208Z,100011.16
2022-11-17T00:42:48.128Z,99993.13
2022-11-17T00:43:51.467Z,99998.31
2022-11-17T00:44:54.900Z,99999.09
2022-11-17T00:45:57.171Z,100004.69
2022-11-17T00:47:00.472Z,100009.31
2022-11-17T00:48:02.842Z,100016.63
2022-11-17T00:49:06.692Z,100015.25
2022-11-17T00:50:10.077Z,100016.63
2022-11-17T00:51:13.481Z,100020.06
2022-11-17T00:52:15.979Z,100018.97
2022-11-17T00:53:19.218Z,100015.41
2022-11-17T00:54:22.150Z,100017.72
2022-11-17T00:55:25.444Z,100025.31
2022-11-17T00:56:27.903Z,100020.66
2022-11-17T00:57:31.115Z,100018.50
2022-11-17T00:58:36.589Z,100021.47
2022-11-17T00:59:39.939Z,100026.44
2022-11-17T01:00:42.251Z,100021.72
2022-11-17T01:01:46.006Z,100020.75
2022-11-17T01:02:48.306Z,100033.22
2022-11-17T01:03:51.835Z,100044.41
2022-11-17T01:04:54.039Z,100042.69
2022-11-17T01:05:57.345Z,100033.78
2022-11-17T01:07:00.840Z,100033.94
2022-11-17T01:08:03.228Z,100043.41
2022-11-17T01:09:09.439Z,100039.97
2022-11-17T01:10:12.721Z,100034.69
2022-11-17T01:11:16.718Z,100034.41
2022-11-17T01:12:19.946Z,100034.56
2022-11-17T01:13:22.411Z,100035.34
2022-11-17T01:14:29.388Z,100028.94
2022-11-17T01:15:31.693Z,100021.00
2022-11-17T01:16:35.115Z,100016.66
2022-11-17T01:17:37.355Z,100011.66
2022-11-17T01:18:41.694Z,100015.56
2022-11-17T01:19:43.981Z,100013.69
2022-11-17T01:20:47.235Z,100014.97
2022-11-17T01:21:50.522Z,100018.69
2022-11-17T01:22:54.489Z,100018.38
2022-11-17T01:23:59.697Z,100021.63
2022-11-17T01:25:01.964Z,100018.19
2022-11-17T01:26:07.796Z,100014.25
2022-11-17T01:27:10.063Z,100024.34
2022-11-17T01:28:13.254Z,100021.25
2022-11-17T01:29:17.390Z,100014.69
2022-11-17T01:30:22.544Z,100007.34
2022-11-17T01:31:26.956Z,100012.59
2022-11-17T01:32:30.328Z,100024.06
2022-11-17T01:33:32.986Z,100005.69
2022-11-17T01:34:36.580Z,100012.25
2022-11-17T01:35:39.109Z,100008.31
2022-11-17T01:37:02.068Z,100015.69
2022-11-17T01:38:05.334Z,100006.75
2022-11-17T01:39:07.493Z,100007.75
2022-11-17T01:40:13.447Z,100008.38
2022-11-17T01:41:18.404Z,100009.16
2022-11-17T01:42:24.413Z,99995.66
2022-11-17T01:43:41.744Z,99986.34
2022-11-17T01:45:03.491Z,99984.66
2022-11-17T01:46:13.123Z,99989.53
2022-11-17T01:47:21.536Z,99989.72
2022-11-17T01:48:25.180Z,99998.91
2022-11-17T01:49:29.429Z,99974.66
2022-11-17T01:50:35.988Z,99977.47
2022-11-17T01:51:41.681Z,99964.22
2022-11-17T01:52:46.188Z,99963.03
2022-11-17T01:53:51.471Z,99976.13
2022-11-17T01:54:56.485Z,99976.88
2022-11-17T01:56:03.593Z,99972.84
2022-11-17T01:57:10.272Z,99973.63
2022-11-17T01:58:18.257Z,99974.44
2022-11-17T01:59:23.751Z,99966.00
2022-11-17T02:00:27.079Z,99961.94
2022-11-17T02:01:31.659Z,99962.72
2022-11-17T02:02:35.899Z,99964.91
2022-11-17T02:03:40.402Z,99963.50
2022-11-17T02:04:49.836Z,99956.66
2022-11-17T02:05:57.875Z,99962.72
2022-11-17T02:07:06.772Z,99961.66
2022-11-17T02:08:11.262Z,99964.91
2022-11-17T02:09:14.885Z,99964.28
2022-11-17T02:10:17.433Z,99968.97
2022-11-17T02:11:21.943Z,99967.44
2022-11-17T02:12:26.880Z,99978.81
2022-11-17T02:13:30.455Z,99962.44
2022-11-17T02:14:33.339Z,99959.50
2022-11-17T02:15:36.730Z,99967.44
2022-11-17T02:16:40.443Z,99973.97
2022-11-17T02:17:44.730Z,99975.84
2022-11-17T02:18:48.883Z,99968.03
2022-11-17T02:20:01.670Z,99969.47
2022-11-17T02:21:30.989Z,99974.63
2022-11-17T02:23:03.184Z,99990.78
2022-11-17T02:24:34.697Z,99980.03
2022-11-17T02:25:53.648Z,99975.84
2022-11-17T02:27:26.839Z,99973.97
2022-11-17T02:28:32.166Z,99978.81
2022-11-17T02:29:39.318Z,99974.25
2022-11-17T02:30:54.157Z,99983.59
2022-11-17T02:32:05.191Z,99987.50
2022-11-17T02:33:15.506Z,99989.38
2022-11-17T02:34:39.962Z,100004.63
2022-11-17T02:35:49.752Z,99995.56
2022-11-17T02:36:58.728Z,99991.75
2022-11-17T02:38:13.742Z,99998.72
2022-11-17T02:39:23.360Z,99988.38
2022-11-17T02:40:32.612Z,99988.44
2022-11-17T02:41:43.286Z,99989.59
2022-11-17T02:43:07.313Z,99977.00
2022-11-17T02:44:17.939Z,99986.31
2022-11-17T02:45:25.779Z,99994.22
2022-11-17T02:46:31.622Z,99988.78
2022-11-17T02:47:37.352Z,100005.13
2022-11-17T02:48:44.216Z,99986.72
2022-11-17T02:49:51.688Z,99991.69
2022-11-17T02:50:54.841Z,100004.16
2022-11-17T02:52:00.173Z,99997.31
2022-11-17T02:53:03.485Z,100011.72
2022-11-17T02:54:07.482Z,100001.63
2022-11-17T02:55:11.389Z,100005.06
2022-11-17T02:56:14.787Z,99996.34
2022-11-17T02:57:30.377Z,99993.22
2022-11-17T02:58:33.700Z,99994.00
2022-11-17T02:59:43.201Z,100012.03
2022-11-17T03:01:00.917Z,99997.25
2022-11-17T03:02:20.185Z,100006.53
2022-11-17T03:03:36.381Z,99998.63
2022-11-17T03:04:48.118Z,100001.88
2022-11-17T03:06:00.534Z,100008.22
2022-11-17T03:07:13.960Z,100001.88
2022-11-17T03:08:32.771Z,100006.19
2022-11-17T03:09:46.772Z,100001.78
2022-11-17T03:10:58.025Z,99996.78
2022-11-17T03:12:06.700Z,99997.41
2022-11-17T03:13:16.675Z,99986.38
2022-11-17T03:14:27.659Z,100003.28
2022-11-17T03:15:40.826Z,100010.25
2022-11-17T03:16:51.588Z,100003.91
2022-11-17T03:18:05.670Z,99997.50
2022-11-17T03:19:16.017Z,99999.38
2022-11-17T03:20:21.814Z,100010.25
2022-11-17T03:21:30.411Z,99999.88
2022-11-17T03:22:43.003Z,100019.16
2022-11-17T03:23:51.374Z,100012.78
2022-11-17T03:24:58.599Z,100014.41
2022-11-17T03:26:06.695Z,100017.53
2022-11-17T03:27:15.501Z,100023.91
2022-11-17T03:28:23.078Z,100026.53
2022-11-17T03:29:29.288Z,100021.25
2022-11-17T03:30:37.645Z,100016.75
2022-11-17T03:31:41.698Z,99996.88
2022-11-17T03:32:50.941Z,99995.63
2022-11-17T03:33:54.708Z,99980.81
2022-11-17T03:35:00.292Z,99984.53
2022-11-17T03:36:07.936Z,99993.25
2022-11-17T03:37:15.418Z,99984.53
2022-11-17T03:38:20.965Z,99991.50
2022-11-17T03:39:29.660Z,99986.06
2022-11-17T03:40:34.968Z,99970.63
2022-11-17T03:41:43.189Z,99973.25
2022-11-17T03:42:52.776Z,99978.22
2022-11-17T03:43:59.694Z,99987.06
2022-11-17T03:45:07.018Z,99977.09
2022-11-17T03:46:17.788Z,99972.78
2022-11-17T03:47:23.439Z,99976.69
2022-11-17T03:48:30.654Z,99983.44
2022-11-17T03:49:41.094Z,99975.13
2022-11-17T03:50:49.817Z,99984.47
2022-11-17T03:51:52.496Z,99986.84
2022-11-17T03:52:56.277Z,99979.50
2022-11-17T03:53:59.007Z,99984.00
2022-11-17T03:55:03.155Z,99987.13
2022-11-17T03:56:15.436Z,99995.84
2022-11-17T03:57:23.587Z,99989.31
2022-11-17T03:58:30.981Z,100000.66
2022-11-17T03:59:43.481Z,100008.56
2022-11-17T04:00:48.964Z,99991.44
2022-11-17T04:01:54.036Z,100001.53
2022-11-17T04:02:58.951Z,100002.16
2022-11-17T04:04:02.605Z,100020.81
2022-11-17T04:05:08.193Z,100024.34
2022-11-17T04:06:11.582Z,100017.22
2022-11-17T04:07:14.274Z,99996.25
2022-11-17T04:08:19.826Z,100008.50
2022-11-17T04:09:24.644Z,99997.50
2022-11-17T04:10:28.708Z,99989.19
2022-11-17T04:11:50.004Z,99994.28
2022-11-17T04:13:11.773Z,99994.50
2022-11-17T04:14:32.674Z,99993.13
2022-11-17T04:15:53.545Z,99997.16
2022-11-17T04:16:58.548Z,100019.44
2022-11-17T04:18:01.003Z,100011.31
2022-11-17T04:19:04.950Z,100015.94
2022-11-17T04:20:09.059Z,100012.03
2022-11-17T04:21:12.507Z,100014.59
2022-11-17T04:22:14.909Z,100030.72
2022-11-17T04:23:18.740Z,100030.72
2022-11-17T04:24:21.024Z,100022.13
2022-11-17T04:25:37.950Z,100035.06
2022-11-17T04:26:58.651Z,100032.69
2022-11-17T04:28:19.454Z,100038.56
2022-11-17T04:29:22.884Z,100032.03
2022-11-17T04:30:25.148Z,100029.22
2022-11-17T04:31:30.142Z,100030.47
2022-11-17T04:32:33.848Z,100032.69
2022-11-17T04:33:38.662Z,100041.50
2022-11-17T04:34:42.769Z,100036.22
2022-11-17T04:35:50.357Z,100035.94
2022-11-17T04:36:53.709Z,100040.25
2022-11-17T04:37:56.222Z,100027.44
2022-11-17T04:39:01.101Z,100035.06
2022-11-17T04:40:04.280Z,100022.53
2022-11-17T04:41:27.214Z,100022.34
2022-11-17T04:42:29.914Z,100025.63
2022-11-17T04:43:33.646Z,100034.84
2022-11-17T04:44:37.429Z,100043.94
2022-11-17T04:45:39.737Z,100057.25
2022-11-17T04:46:44.603Z,100071.06
2022-11-17T04:47:49.116Z,100069.09
2022-11-17T04:48:54.093Z,100073.69
2022-11-17T04:49:56.356Z,100061.56
2022-11-17T04:50:59.841Z,100062.94
2022-11-17T04:52:03.972Z,100043.16
2022-11-17T04:53:06.256Z,100042.19
2022-11-17T04:54:11.044Z,100050.63
2022-11-17T04:55:13.581Z,100041.72
2022-11-17T04:56:17.161Z,100032.59
2022-11-17T04:57:20.890Z,100036.72
2022-11-17T04:58:23.686Z,100040.16
2022-11-17T04:59:27.262Z,100043.84
2022-11-17T05:00:29.633Z,100053.34
2022-11-17T05:01:33.894Z,100044.13
2022-11-17T05:02:37.349Z,100046.78
2022-11-17T05:03:43.601Z,100041.50
2022-11-17T05:04:59.313Z,100038.84
2022-11-17T05:06:01.568Z,100045.06
2022-11-17T05:07:05.772Z,100049.94
2022-11-17T05:08:08.149Z,100038.56
2022-11-17T05:09:13.586Z,100045.81
2022-11-17T05:10:16.739Z,100048.44
2022-11-17T05:11:37.711Z,100052.47
2022-11-17T05:13:10.216Z,100045.63
2022-11-17T05:14:15.263Z,100051.69
2022-11-17T05:15:37.547Z,100052.19
2022-11-17T05:16:58.699Z,100049.56
2022-11-17T05:18:01.156Z,100056.50
2022-11-17T05:19:07.361Z,100057.56
2022-11-17T05:20:11.708Z,100053.06
2022-11-17T05:21:13.986Z,100053.63
2022-11-17T05:22:36.623Z,100054.94
2022-11-17T05:23:55.208Z,100055.72
2022-11-17T05:24:57.721Z,100064.09
2022-11-17T05:25:59.885Z,100066.47
2022-11-17T05:27:03.204Z,100068.22
2022-11-17T05:28:05.678Z,100074.75
2022-11-17T05:29:10.145Z,100078.47
2022-11-17T05:30:13.425Z,100076.16
2022-11-17T05:31:17.475Z,100087.50
2022-11-17T05:32:20.198Z,100083.47
2022-11-17T05:33:23.535Z,100088.06
2022-11-17T05:34:28.349Z,100092.97
2022-11-17T05:35:30.731Z,100091.19
2022-11-17T05:36:35.220Z,100086.63
2022-11-17T05:37:37.577Z,100089.03
2022-11-17T05:38:40.953Z,100085.59
2022-11-17T05:39:43.284Z,100091.75
2022-11-17T05:40:46.678Z,100097.03
2022-11-17T05:41:49.078Z,100101.63
2022-11-17T05:42:56.916Z,100094.78
2022-11-17T05:43:59.566Z,100097.38
2022-11-17T05:45:02.843Z,100100.94
2022-11-17T05:46:05.495Z,100098.66
2022-11-17T05:47:08.892Z,100099.91
2022-11-17T05:48:11.294Z,100096.22
2022-11-17T05:49:14.541Z,100097.91
2022-11-17T05:50:19.353Z,100092.41
2022-11-17T05:51:25.126Z,100098.94
2022-11-17T05:52:27.436Z,100095.16
2022-11-17T05:53:31.687Z,100094.09
2022-11-17T05:54:34.232Z,100097.22
2022-11-17T05:55:37.615Z,100084.59
2022-11-17T05:56:43.707Z,100094.72
2022-11-17T05:57:47.963Z,100094.72
2022-11-17T05:58:53.509Z,100100.19
2022-11-17T06:00:01.183Z,100096.38
2022-11-17T06:01:04.127Z,100097.53
2022-11-17T06:02:11.557Z,100095.06
2022-11-17T06:03:18.738Z,100101.53
2022-11-17T06:04:22.662Z,100094.81
2022-11-17T06:05:26.762Z,100099.22
2022-11-17T06:06:31.545Z,100102.34
2022-11-17T06:07:37.000Z,100106.19
2022-11-17T06:08:39.741Z,100110.25
2022-11-17T06:09:43.789Z,100104.59
2022-11-17T06:10:46.051Z,100113.03
2022-11-17T06:11:49.466Z,100111.56
2022-11-17T06:12:51.653Z,100109.00
2022-11-17T06:13:54.981Z,100115.34
2022-11-17T06:14:57.344Z,100108.53
2022-11-17T06:16:04.878Z,100121.84
2022-11-17T06:17:13.431Z,100122.03
2022-11-17T06:18:19.783Z,100120.16
2022-11-17T06:19:28.504Z,100118.31
2022-11-17T06:20:35.779Z,100112.53
2022-11-17T06:22:10.032Z,100128.19
2022-11-17T06:23:06.369Z,100132.09
2022-11-17T06:24:09.807Z,100134.44
2022-11-17T06:25:13.490Z,100134.25
2022-11-17T06:26:16.431Z,100137.78
2022-11-17T06:27:20.088Z,100133.28
2022-11-17T06:28:23.558Z,100136.00
2022-11-17T06:29:30.131Z,100137.25
2022-11-17T06:30:33.715Z,100138.38
2022-11-17T06:31:37.224Z,100131.50
2022-11-17T06:32:44.002Z,100140.03
2022-11-17T06:33:48.364Z,100134.75
2022-11-17T06:34:55.726Z,100133.97
2022-11-17T06:36:03.437Z,100140.50
2022-11-17T06:37:05.714Z,100141.28
2022-11-17T06:38:09.217Z,100144.91
2022-11-17T06:39:11.429Z,100147.25
2022-11-17T06:40:14.818Z,100138.38
2022-11-17T06:41:17.053Z,100150.00
2022-11-17T06:42:40.392Z,100146.06
2022-11-17T06:43:42.647Z,100146.75
2022-11-17T06:44:45.900Z,100144.31
2022-11-17T06:45:48.667Z,100146.66
2022-11-17T06:46:52.002Z,100149.78
2022-11-17T06:47:54.513Z,100154.19
2022-11-17T06:48:57.884Z,100153.31
2022-11-17T06:50:00.197Z,100151.66
2022-11-17T06:51:06.657Z,100158.81
2022-11-17T06:52:11.121Z,100151.97
2022-11-17T06:53:14.516Z,100163.31
2022-11-17T06:54:16.836Z,100162.34
2022-11-17T06:55:20.218Z,100160.47
2022-11-17T06:56:24.128Z,100162.44
2022-11-17T06:57:27.006Z,100163.22
2022-11-17T06:58:31.236Z,100165.16
2022-11-17T06:59:34.957Z,100166.31
2022-11-17T07:00:38.355Z,100162.59
2022-11-17T07:01:41.622Z,100167.88
2022-11-17T07:02:44.165Z,100157.91
2022-11-17T07:03:47.789Z,100161.91
2022-11-17T07:04:50.183Z,100161.91
2022-11-17T07:05:54.043Z,100159.50
2022-11-17T07:06:57.749Z,100164.38
2022-11-17T07:08:02.280Z,100170.53
2022-11-17T07:09:05.910Z,100170.34
2022-11-17T07:10:09.422Z,100171.91
2022-11-17T07:11:15.085Z,100168.66
2022-11-17T07:12:17.347Z,100177.84
2022-11-17T07:13:20.577Z,100176.50
2022-11-17T07:14:22.813Z,100181.00
2022-11-17T07:15:26.490Z,100185.22
2022-11-17T07:16:30.823Z,100187.94
2022-11-17T07:17:34.449Z,100196.94
2022-11-17T07:18:39.287Z,100194.50
2022-11-17T07:19:41.492Z,100191.06
2022-11-17T07:20:45.214Z,100187.06
2022-11-17T07:21:48.807Z,100190.59
2022-11-17T07:22:53.675Z,100197.44
2022-11-17T07:23:56.997Z,100198.97
2022-11-17T07:24:59.595Z,100198.50
2022-11-17T07:26:03.644Z,100201.34
2022-11-17T07:27:06.702Z,100206.34
2022-11-17T07:28:10.098Z,100201.06
2022-11-17T07:29:13.660Z,100200.97
2022-11-17T07:30:16.607Z,100197.56
2022-11-17T07:31:19.882Z,100203.13
2022-11-17T07:32:22.335Z,100207.63
2022-11-17T07:33:25.699Z,100203.72
2022-11-17T07:34:29.034Z,100209.97
2022-11-17T07:35:31.238Z,100207.63
2022-11-17T07:36:34.980Z,100209.38
2022-11-17T07:37:37.832Z,100206.47
2022-11-17T07:38:42.731Z,100203.63
2022-11-17T07:39:45.035Z,100201.19
2022-11-17T07:40:48.558Z,100201.38
2022-11-17T07:41:50.943Z,100198.44
2022-11-17T07:42:54.226Z,100195.69
2022-11-17T07:43:56.593Z,100204.72
2022-11-17T07:44:59.963Z,100205.38
2022-11-17T07:46:04.507Z,100203.25
2022-11-17T07:47:07.785Z,100208.53
2022-11-17T07:48:10.216Z,100205.38
2022-11-17T07:49:14.031Z,100212.75
2022-11-17T07:50:16.441Z,100211.06
2022-11-17T07:51:19.987Z,100212.44
2022-11-17T07:52:22.457Z,100212.75
2022-11-17T07:53:25.722Z,100209.59
2022-11-17T07:54:29.529Z,100209.31
2022-11-17T07:55:32.943Z,100215.28
2022-11-17T07:56:35.293Z,100206.59
2022-11-17T07:57:38.712Z,100205.88
2022-11-17T07:58:42.513Z,100202.16
2022-11-17T07:59:44.893Z,100201.38
2022-11-17T08:00:48.531Z,100204.13
2022-11-17T08:01:50.847Z,100203.03
2022-11-17T08:02:55.116Z,100196.38
2022-11-17T08:03:58.659Z,100207.38
2022-11-17T08:05:02.407Z,100197.88
2022-11-17T08:06:07.321Z,100194.16
2022-11-17T08:07:09.649Z,100197.34
2022-11-17T08:08:13.748Z,100196.28
2022-11-17T08:09:16.922Z,100197.06
2022-11-17T08:10:21.605Z,100202.56
2022-11-17T08:11:24.308Z,100192.19
2022-11-17T08:12:27.608Z,100192.69
2022-11-17T08:13:29.973Z,100188.19
2022-11-17T08:14:33.337Z,100199.81
2022-11-17T08:15:36.314Z,100195.88
2022-11-17T08:16:40.027Z,100196.97
2022-11-17T08:17:42.378Z,100196.69
2022-11-17T08:18:51.742Z,100199.13
2022-11-17T08:19:55.406Z,100193.84
2022-11-17T08:21:04.029Z,100198.34
2022-11-17T08:22:06.287Z,100203.63
2022-11-17T08:23:09.603Z,100201.06
2022-11-17T08:24:12.577Z,100198.44
2022-11-17T08:25:16.067Z,100206.66
2022-11-17T08:26:20.940Z,100198.44
2022-11-17T08:27:24.163Z,100203.94
2022-11-17T08:28:26.596Z,100199.63
2022-11-17T08:29:29.936Z,100203.63
2022-11-17T08:30:35.324Z,100202.75
2022-11-17T08:31:38.924Z,100210.28
2022-11-17T08:32:48.269Z,100207.94
2022-11-17T08:33:51.721Z,100214.78
2022-11-17T08:34:54.343Z,100214.97
2022-11-17T08:35:58.675Z,100211.56
2022-11-17T08:37:02.459Z,100204.13
2022-11-17T08:38:05.880Z,100205.09
2022-11-17T08:39:08.158Z,100212.25
2022-11-17T08:40:12.952Z,100206.69
2022-11-17T08:41:15.367Z,100196.28
2022-11-17T08:42:20.651Z,100202.66
2022-11-17T08:43:22.929Z,100198.84
2022-11-17T08:44:26.376Z,100206.97
2022-11-17T08:45:29.870Z,100203.44
2022-11-17T08:46:34.462Z,100204.69
2022-11-17T08:47:38.336Z,100203.53
2022-11-17T08:48:40.981Z,100198.72
2022-11-17T08:49:44.288Z,100197.94
2022-11-17T08:50:46.641Z,100200.09
2022-11-17T08:51:50.135Z,100190.78
2022-11-17T08:52:53.036Z,100191.28
2022-11-17T08:53:56.403Z,100191.19
2022-11-17T08:54:59.978Z,100197.72
2022-11-17T08:56:02.493Z,100189.50
2022-11-17T08:57:05.918Z,100201.53
2022-11-17T08:58:10.910Z,100190.66
2022-11-17T08:59:14.421Z,100188.47
2022-11-17T09:00:19.992Z,100195.84
2022-11-17T09:01:23.419Z,100192.13
2022-11-17T09:02:27.540Z,100194.94
2022-11-17T09:03:29.861Z,100199.75
2022-11-17T09:04:33.251Z,100192.59
2022-11-17T09:05:40.268Z,100195.41
2022-11-17T09:06:43.802Z,100190.81
2022-11-17T09:07:47.526Z,100198.13
2022-11-17T09:08:54.016Z,100199.53
2022-11-17T09:09:57.586Z,100205.78
2022-11-17T09:11:05.657Z,100205.28
2022-11-17T09:12:09.326Z,100205.59
2022-11-17T09:13:18.473Z,100203.25
2022-11-17T09:14:22.132Z,100198.56
2022-11-17T09:15:24.953Z,100201.09
2022-11-17T09:16:28.476Z,100197.34
2022-11-17T09:17:31.615Z,100199.53
2022-11-17T09:18:35.647Z,100202.97
2022-11-17T09:19:38.182Z,100202.06
2022-11-17T09:20:45.646Z,100197.25
2022-11-17T09:21:49.586Z,100202.72
2022-11-17T09:22:52.154Z,100202.13
2022-11-17T09:23:55.954Z,100198.41
2022-11-17T09:24:59.272Z,100199.66
2022-11-17T09:26:06.276Z,100197.91
2022-11-17T09:27:09.517Z,100200.28
2022-11-17T09:28:13.250Z,100195.63
2022-11-17T09:29:16.844Z,100200.00
2022-11-17T09:30:22.232Z,100203.94
2022-11-17T09:31:26.010Z,100198.66
2022-11-17T09:32:29.634Z,100204.41
2022-11-17T09:33:32.022Z,100203.34
2022-11-17T09:34:35.466Z,100199.28
2022-11-17T09:35:39.396Z,100199.50
2022-11-17T09:36:43.939Z,100193.28
2022-11-17T09:37:47.643Z,100199.53
2022-11-17T09:38:51.151Z,100195.22
2022-11-17T09:39:53.343Z,100196.47
2022-11-17T09:40:58.643Z,100201.66
2022-11-17T09:42:02.334Z,100202.50
2022-11-17T09:43:08.817Z,100195.16
2022-11-17T09:44:25.956Z,100203.63
2022-11-17T09:45:34.956Z,100202.47
2022-11-17T09:46:51.940Z,100205.56
2022-11-17T09:48:18.452Z,100213.38
2022-11-17T09:49:37.190Z,100206.78
2022-11-17T09:50:42.132Z,100210.16
2022-11-17T09:51:48.653Z,100213.81
2022-11-17T09:53:02.741Z,100214.78
2022-11-17T09:54:14.945Z,100218.56
2022-11-17T09:55:32.823Z,100214.69
2022-11-17T09:56:37.515Z,100208.75
2022-11-17T09:57:45.002Z,100218.22
2022-11-17T09:58:52.517Z,100226.41
2022-11-17T10:00:05.255Z,100222.16
2022-11-17T10:01:13.088Z,100224.34
2022-11-17T10:02:15.720Z,100226.03
2022-11-17T10:03:21.854Z,100224.78
2022-11-17T10:04:30.320Z,100231.94
2022-11-17T10:05:35.448Z,100218.53
2022-11-17T10:06:39.364Z,100216.81
2022-11-17T10:07:48.973Z,100216.53
2022-11-17T10:08:58.927Z,100208.38
2022-11-17T10:10:04.804Z,100209.94
2022-11-17T10:11:26.905Z,100210.63
2022-11-17T10:12:37.114Z,100208.75
2022-11-17T10:13:40.047Z,100212.19
2022-11-17T10:14:43.384Z,100206.00
2022-11-17T10:15:52.060Z,100216.47
2022-11-17T10:16:58.187Z,100214.75
2022-11-17T10:18:00.519Z,100215.34
2022-11-17T10:19:10.198Z,100218.00
2022-11-17T10:20:17.580Z,100216.47
2022-11-17T10:21:21.401Z,100215.31
2022-11-17T10:22:35.668Z,100220.94
2022-11-17T10:23:46.199Z,100222.03
2022-11-17T10:24:54.418Z,100222.03
2022-11-17T10:25:58.574Z,100219.38
2022-11-17T10:27:03.165Z,100224.06
2022-11-17T10:28:08.462Z,100219.72
2022-11-17T10:29:14.156Z,100223.75
2022-11-17T10:30:23.736Z,100225.97
2022-11-17T10:31:30.793Z,100223.31
2022-11-17T10:32:37.410Z,100225.59
2022-11-17T10:33:43.651Z,100215.28
2022-11-17T10:34:47.365Z,100221.22
2022-11-17T10:35:58.162Z,100218.22
2022-11-17T10:37:07.925Z,100201.97
2022-11-17T10:38:19.161Z,100195.88
2022-11-17T10:39:36.921Z,100199.44
2022-11-17T10:40:50.534Z,100194.75
2022-11-17T10:41:54.522Z,100192.28
2022-11-17T10:43:22.125Z,100188.13
2022-11-17T10:44:29.206Z,100194.22
2022-11-17T10:45:33.586Z,100196.91
2022-11-17T10:47:00.542Z,100202.19
2022-11-17T10:48:21.590Z,100203.47
2022-11-17T10:49:27.387Z,100196.19
2022-11-17T10:50:29.635Z,100197.72
2022-11-17T10:51:34.071Z,100195.94
2022-11-17T10:52:36.397Z,100199.78
2022-11-17T10:53:46.103Z,100200.09
2022-11-17T10:54:49.989Z,100197.44
2022-11-17T10:56:01.129Z,100199.63
2022-11-17T10:57:09.563Z,100202.28
2022-11-17T10:58:23.497Z,100202.59
2022-11-17T10:59:31.074Z,100202.28
2022-11-17T11:00:35.591Z,100195.75
2022-11-17T11:01:42.487Z,100196.06
2022-11-17T11:02:44.811Z,100194.72
2022-11-17T11:03:50.750Z,100199.53
2022-11-17T11:05:07.268Z,100200.19
2022-11-17T11:06:24.744Z,100198.09
2022-11-17T11:07:28.444Z,100195.94
2022-11-17T11:08:37.002Z,100197.09
2022-11-17T11:09:45.783Z,100197.19
2022-11-17T11:10:51.545Z,100196.03
2022-11-17T11:11:58.111Z,100199.44
2022-11-17T11:13:10.394Z,100198.38
2022-11-17T11:14:20.834Z,100201.03
2022-11-17T11:15:25.470Z,100193.38
2022-11-17T11:16:30.641Z,100193.38
2022-11-17T11:17:35.452Z,100191.63
2022-11-17T11:18:39.055Z,100187.00
2022-11-17T11:19:43.543Z,100187.16
2022-11-17T11:20:51.810Z,100178.75
2022-11-17T11:22:20.807Z,100171.66
2022-11-17T11:23:38.881Z,100166.50
2022-11-17T11:24:52.483Z,100171.03
2022-11-17T11:26:02.563Z,100167.00
2022-11-17T11:27:29.651Z,100169.00
2022-11-17T11:28:48.000Z,100170.09
2022-11-17T11:30:02.626Z,100164.78
2022-11-17T11:31:15.138Z,100158.84
2022-11-17T11:32:27.106Z,100159.75
2022-11-17T11:33:38.450Z,100164.31
2022-11-17T11:35:17.038Z,100150.69
2022-11-17T11:36:33.810Z,100153.97
2022-11-17T11:37:44.250Z,100144.72
2022-11-17T11:38:57.598Z,100149.22
2022-11-17T11:40:11.318Z,100146.53
2022-11-17T11:41:26.057Z,100146.38
2022-11-17T11:42:50.937Z,100146.28
2022-11-17T11:44:07.396Z,100151.13
2022-11-17T11:45:22.909Z,100140.34
2022-11-17T11:46:36.715Z,100139.91
2022-11-17T11:47:57.567Z,100136.16
2022-11-17T11:49:13.491Z,100130.63
2022-11-17T11:50:21.246Z,100131.91
2022-11-17T11:51:30.457Z,100123.59
2022-11-17T11:52:38.188Z,100122.97
2022-11-17T11:53:49.664Z,100132.50
2022-11-17T11:54:57.188Z,100132.13
2022-11-17T11:56:16.227Z,100136.50
2022-11-17T11:57:25.066Z,100142.31
2022-11-17T11:58:28.340Z,100134.84
2022-11-17T11:59:40.182Z,100137.56
2022-11-17T12:00:45.933Z,100129.84
2022-11-17T12:01:54.444Z,100126.44
2022-11-17T12:03:05.527Z,100117.22
2022-11-17T12:04:23.314Z,100113.81
2022-11-17T12:05:34.532Z,100115.88
2022-11-17T12:06:43.699Z,100115.41
2022-11-17T12:07:52.538Z,100106.06
2022-11-17T12:09:04.295Z,100118.22
2022-11-17T12:10:17.222Z,100111.03
2022-11-17T12:11:38.334Z,100100.78
2022-11-17T12:12:45.798Z,100110.91
2022-11-17T12:13:54.000Z,100104.03
2022-11-17T12:15:29.325Z,100109.56
2022-11-17T12:16:35.567Z,100094.50
2022-11-17T12:18:00.335Z,100105.56
2022-11-17T12:19:03.734Z,100101.22
2022-11-17T12:20:50.916Z,100099.09
2022-11-17T12:22:17.192Z,100098.47
2022-11-17T12:23:57.331Z,100098.63
2022-11-17T12:25:03.924Z,100100.97
2022-11-17T12:26:22.775Z,100095.50
2022-11-17T12:27:44.717Z,100099.72
2022-11-17T12:28:47.998Z,100096.72
2022-11-17T12:29:51.184Z,100089.38
2022-11-17T12:31:00.320Z,100090.56
2022-11-17T12:32:07.621Z,100084.66
2022-11-17T12:33:10.991Z,100083.84
2022-11-17T12:34:25.211Z,100077.44
2022-11-17T12:35:31.990Z,100075.44
2022-11-17T12:36:36.459Z,100082.00
2022-11-17T12:37:38.985Z,100080.59
2022-11-17T12:38:43.107Z,100073.72
2022-11-17T12:40:02.001Z,100076.22
2022-11-17T12:41:06.473Z,100074.84
2022-11-17T12:42:10.156Z,100077.81
2022-11-17T12:43:24.474Z,100070.19
2022-11-17T12:45:02.898Z,100075.06
2022-11-17T12:46:27.855Z,100081.75
2022-11-17T12:47:32.370Z,100077.22
2022-11-17T12:48:39.159Z,100080.34
2022-11-17T12:49:52.305Z,100078.78